Time,TemperatureF,DewpointF,PressureIn,WindDirection,WindDirectionDegrees,WindSpeedMPH,WindSpeedGustMPH,Humidity,HourlyPrecipIn,Conditions,Clouds,dailyrainin,SoftwareType,DateUTC
2013-08-08 00:00:00,59.2,54.7,30.00,North,0,0.0,0.0,85,0.00,,,0.00,LWC V2.00 B2112,2013-08-08 07:00:00,
2013-08-08 00:10:00,59.2,54.7,30.00,North,0,0.0,0.0,85,0.00,,,0.00,LWC V2.00 B2112,2013-08-08 07:10:00,
2013-08-08 00:20:00,59.2,54.7,30.00,North,0,0.0,0.0,85,0.00,,,0.00,LWC V2.00 B2112,2013-08-08 07:20:00,
2013-08-08 00:30:00,59.0,54.8,30.00,North,0,0.0,0.0,86,0.00,,,0.00,LWC V2.00 B2112,2013-08-08 07:30:00,
2013-08-08 00:40:00,59.0,54.8,30.00,North,0,0.0,0.0,86,0.00,,,0.00,LWC V2.00 B2112,2013-08-08 07:40:00,
2013-08-08 00:50:00,59.0,54.8,30.00,North,0,0.0,0.0,86,0.00,,,0.00,LWC V2.00 B2112,2013-08-08 07:50:00,
2013-08-08 01:00:00,58.8,54.6,30.00,North,0,0.0,0.0,86,0.00,,,0.00,LWC V2.00 B2112,2013-08-08 08:00:00,
2013-08-08 01:10:00,58.8,54.6,30.00,North,0,0.0,0.0,86,0.00,,,0.00,LWC V2.00 B2112,2013-08-08 08:10:00,
2013-08-08 01:20:00,58.8,54.6,30.00,North,0,0.0,0.0,86,0.00,,,0.00,LWC V2.00 B2112,2013-08-08 08:20:00,
2013-08-08 01:30:00,58.4,54.2,29.99,North,0,0.0,0.0,86,0.00,,,0.00,LWC V2.00 B2112,2013-08-08 08:30:00,
2013-08-08 01:40:00,58.4,54.2,29.99,North,0,0.0,0.0,86,0.00,,,0.00,LWC V2.00 B2112,2013-08-08 08:40:00,
2013-08-08 01:50:00,58.4,54.2,29.99,North,0,0.0,0.0,86,0.00,,,0.00,LWC V2.00 B2112,2013-08-08 08:50:00,
2013-08-08 02:00:00,58.1,53.9,29.98,North,0,0.0,0.0,86,0.00,,,0.00,LWC V2.00 B2112,2013-08-08 09:00:00,
2013-08-08 02:10:00,58.1,53.9,29.98,North,0,0.0,0.0,86,0.00,,,0.00,LWC V2.00 B2112,2013-08-08 09:10:00,
2013-08-08 02:20:00,58.1,53.9,29.98,North,0,0.0,0.0,86,0.00,,,0.00,LWC V2.00 B2112,2013-08-08 09:20:00,
2013-08-08 02:30:00,57.8,53.6,29.98,North,0,0.0,0.0,86,0.00,,,0.00,LWC V2.00 B2112,2013-08-08 09:30:00,
2013-08-08 02:40:00,57.8,53.6,29.98,North,0,0.0,0.0,86,0.00,,,0.00,LWC V2.00 B2112,2013-08-08 09:40:00,
2013-08-08 02:50:00,57.8,53.6,29.98,North,0,0.0,0.0,86,0.00,,,0.00,LWC V2.00 B2112,2013-08-08 09:50:00,
2013-08-08 03:00:00,57.9,53.7,29.97,North,0,0.0,0.0,86,0.00,,,0.00,LWC V2.00 B2112,2013-08-08 10:00:00,
2013-08-08 03:10:00,57.9,53.7,29.97,North,0,0.0,0.0,86,0.00,,,0.00,LWC V2.00 B2112,2013-08-08 10:10:00,
2013-08-08 03:20:00,57.9,53.7,29.97,North,0,0.0,0.0,86,0.00,,,0.00,LWC V2.00 B2112,2013-08-08 10:20:00,
2013-08-08 03:30:00,57.2,53.0,29.97,North,0,0.0,0.0,86,0.00,,,0.00,LWC V2.00 B2112,2013-08-08 10:30:00,
2013-08-08 03:40:00,57.2,53.0,29.97,North,0,0.0,0.0,86,0.00,,,0.00,LWC V2.00 B2112,2013-08-08 10:40:00,
2013-08-08 03:50:00,57.2,53.0,29.97,North,0,0.0,0.0,86,0.00,,,0.00,LWC V2.00 B2112,2013-08-08 10:50:00,
2013-08-08 04:00:00,56.3,52.2,29.96,North,0,0.0,0.0,86,0.00,,,0.00,LWC V2.00 B2112,2013-08-08 11:00:00,
2013-08-08 04:10:00,56.3,52.2,29.96,North,0,0.0,0.0,86,0.00,,,0.00,LWC V2.00 B2112,2013-08-08 11:10:00,
2013-08-08 04:20:00,56.3,52.2,29.96,North,0,0.0,0.0,86,0.00,,,0.00,LWC V2.00 B2112,2013-08-08 11:20:00,
2013-08-08 04:30:00,56.3,52.2,29.96,North,0,0.0,0.0,86,0.00,,,0.00,LWC V2.00 B2112,2013-08-08 11:30:00,
2013-08-08 04:40:00,56.0,51.9,29.96,North,0,0.0,0.0,86,0.00,,,0.00,LWC V2.00 B2112,2013-08-08 11:40:00,
2013-08-08 04:50:00,56.0,51.9,29.96,North,0,0.0,0.0,86,0.00,,,0.00,LWC V2.00 B2112,2013-08-08 11:50:00,
2013-08-08 05:00:00,56.0,51.9,29.96,North,0,0.0,0.0,86,0.00,,,0.00,LWC V2.00 B2112,2013-08-08 12:00:00,
2013-08-08 05:10:00,56.1,52.0,29.96,North,0,0.0,0.0,86,0.00,,,0.00,LWC V2.00 B2112,2013-08-08 12:10:00,
2013-08-08 05:20:00,56.1,52.0,29.96,North,0,0.0,0.0,86,0.00,,,0.00,LWC V2.00 B2112,2013-08-08 12:20:00,
2013-08-08 05:30:00,56.1,52.0,29.96,North,0,0.0,0.0,86,0.00,,,0.00,LWC V2.00 B2112,2013-08-08 12:30:00,
2013-08-08 05:40:00,55.7,51.6,29.96,North,0,0.0,0.0,86,0.00,,,0.00,LWC V2.00 B2112,2013-08-08 12:40:00,
2013-08-08 05:50:00,55.7,51.6,29.96,North,0,0.0,0.0,86,0.00,,,0.00,LWC V2.00 B2112,2013-08-08 12:50:00,
2013-08-08 06:03:00,55.7,51.6,29.97,SW,233,0.0,0.0,86,0.00,,,0.01,LWC V2.00 B2112,2013-08-08 13:03:00,
2013-08-08 06:08:00,55.7,51.6,29.97,SW,234,0.0,0.0,86,0.00,,,0.01,LWC V2.00 B2112,2013-08-08 13:08:00,
2013-08-08 06:13:00,55.8,51.7,29.97,SW,233,0.0,0.0,86,0.00,,,0.01,LWC V2.00 B2112,2013-08-08 13:13:00,
2013-08-08 06:18:00,55.8,51.7,29.97,SW,233,0.0,0.0,86,0.00,,,0.01,LWC V2.00 B2112,2013-08-08 13:18:00,
2013-08-08 06:23:00,55.8,51.7,29.97,SW,233,0.0,0.0,86,0.00,,,0.01,LWC V2.00 B2112,2013-08-08 13:23:00,
2013-08-08 06:28:00,55.7,51.6,29.97,SW,234,0.0,0.0,86,0.00,,,0.01,LWC V2.00 B2112,2013-08-08 13:28:00,
2013-08-08 06:33:00,55.7,51.6,29.97,SW,233,0.0,0.0,86,0.00,,,0.01,LWC V2.00 B2112,2013-08-08 13:33:00,
2013-08-08 06:38:00,55.6,51.5,29.97,SW,233,0.0,0.0,86,0.00,,,0.01,LWC V2.00 B2112,2013-08-08 13:38:00,
2013-08-08 06:43:00,55.6,51.5,29.97,SW,233,0.0,0.0,86,0.00,,,0.01,LWC V2.00 B2112,2013-08-08 13:43:00,
2013-08-08 06:48:00,55.6,51.5,29.97,SW,233,0.0,0.0,86,0.00,,,0.01,LWC V2.00 B2112,2013-08-08 13:48:00,
2013-08-08 06:52:00,55.6,51.5,29.97,SW,233,0.0,0.0,86,0.00,,,0.01,LWC V2.00 B2112,2013-08-08 13:52:00,
2013-08-08 06:57:00,55.5,51.4,29.98,SW,233,0.0,0.0,86,0.00,,,0.01,LWC V2.00 B2112,2013-08-08 13:57:00,
2013-08-08 07:02:00,55.4,51.3,29.97,SW,233,0.0,0.0,86,0.00,,,0.01,LWC V2.00 B2112,2013-08-08 14:02:00,
2013-08-08 07:07:00,55.2,51.1,29.97,SW,233,0.0,0.0,86,0.00,,,0.01,LWC V2.00 B2112,2013-08-08 14:07:00,
2013-08-08 07:12:00,55.2,51.1,29.98,SW,233,0.0,0.0,86,0.00,,,0.01,LWC V2.00 B2112,2013-08-08 14:12:00,
2013-08-08 07:17:00,55.4,51.3,29.98,SW,233,0.0,0.0,86,0.00,,,0.01,LWC V2.00 B2112,2013-08-08 14:17:00,
2013-08-08 07:22:00,56.3,52.2,29.98,SW,233,0.0,0.0,86,0.00,,,0.01,LWC V2.00 B2112,2013-08-08 14:22:00,
2013-08-08 07:27:00,57.4,53.2,29.98,SW,233,0.0,0.0,86,0.00,,,0.01,LWC V2.00 B2112,2013-08-08 14:27:00,
2013-08-08 07:32:00,57.9,53.7,29.98,SW,231,0.0,0.0,86,0.00,,,0.01,LWC V2.00 B2112,2013-08-08 14:32:00,
2013-08-08 07:37:00,58.3,54.1,29.98,NE,47,0.0,0.0,86,0.00,,,0.01,LWC V2.00 B2112,2013-08-08 14:37:00,
2013-08-08 07:42:00,58.2,54.0,29.98,North,357,0.0,0.0,86,0.00,,,0.01,LWC V2.00 B2112,2013-08-08 14:42:00,
2013-08-08 07:47:00,58.0,53.8,29.98,WNW,288,0.0,0.0,86,0.00,,,0.01,LWC V2.00 B2112,2013-08-08 14:47:00,
2013-08-08 07:52:00,58.2,54.0,29.98,NNE,33,0.0,0.0,86,0.00,,,0.01,LWC V2.00 B2112,2013-08-08 14:52:00,
2013-08-08 07:57:00,58.8,54.6,29.98,ENE,60,0.0,0.0,86,0.00,,,0.02,LWC V2.00 B2112,2013-08-08 14:57:00,
2013-08-08 08:02:00,59.0,54.8,29.98,North,355,0.0,0.0,86,0.00,,,0.02,LWC V2.00 B2112,2013-08-08 15:02:00,
2013-08-08 08:07:00,59.1,54.9,29.98,SE,135,0.0,0.0,86,0.00,,,0.02,LWC V2.00 B2112,2013-08-08 15:07:00,
2013-08-08 08:12:00,59.0,54.8,29.98,WSW,246,0.0,0.0,86,0.00,,,0.02,LWC V2.00 B2112,2013-08-08 15:12:00,
2013-08-08 08:17:00,58.8,54.6,29.98,East,81,0.0,0.0,86,0.00,,,0.02,LWC V2.00 B2112,2013-08-08 15:17:00,
2013-08-08 08:22:00,58.6,54.4,29.98,NE,44,0.0,0.0,86,0.00,,,0.02,LWC V2.00 B2112,2013-08-08 15:22:00,
2013-08-08 08:27:00,58.5,54.3,29.98,NNW,348,0.0,1.0,86,0.00,,,0.02,LWC V2.00 B2112,2013-08-08 15:27:00,
2013-08-08 08:32:00,58.6,54.4,29.98,East,84,0.0,1.0,86,0.00,,,0.02,LWC V2.00 B2112,2013-08-08 15:32:00,
2013-08-08 08:37:00,58.8,54.6,29.98,East,93,0.0,0.0,86,0.00,,,0.02,LWC V2.00 B2112,2013-08-08 15:37:00,
2013-08-08 08:42:00,59.5,55.3,29.98,South,188,0.0,0.0,86,0.00,,,0.02,LWC V2.00 B2112,2013-08-08 15:42:00,
2013-08-08 08:47:00,59.7,55.5,29.98,NW,311,0.0,0.0,86,0.00,,,0.02,LWC V2.00 B2112,2013-08-08 15:47:00,
2013-08-08 08:52:00,60.1,55.6,29.98,SW,227,0.0,2.0,85,0.00,,,0.02,LWC V2.00 B2112,2013-08-08 15:52:00,
2013-08-08 08:57:00,60.3,55.8,29.98,NW,316,0.0,0.0,85,0.00,,,0.02,LWC V2.00 B2112,2013-08-08 15:57:00,
2013-08-08 09:02:00,60.9,56.4,29.98,NW,321,0.0,1.0,85,0.00,,,0.02,LWC V2.00 B2112,2013-08-08 16:02:00,
2013-08-08 09:07:00,61.1,56.2,29.98,SSE,166,1.0,2.0,84,0.00,,,0.02,LWC V2.00 B2112,2013-08-08 16:07:00,
2013-08-08 09:12:00,61.1,56.2,29.98,ESE,102,0.0,1.0,84,0.00,,,0.02,LWC V2.00 B2112,2013-08-08 16:12:00,
2013-08-08 09:17:00,61.1,55.9,29.98,ESE,102,0.0,2.0,83,0.00,,,0.02,LWC V2.00 B2112,2013-08-08 16:17:00,
2013-08-08 09:22:00,61.0,55.8,29.98,NNE,33,0.0,1.0,83,0.00,,,0.02,LWC V2.00 B2112,2013-08-08 16:22:00,
2013-08-08 09:27:00,61.2,56.0,29.98,North,8,1.0,1.0,83,0.00,,,0.02,LWC V2.00 B2112,2013-08-08 16:27:00,
2013-08-08 09:33:00,61.5,56.3,29.98,NW,314,0.0,2.0,83,0.00,,,0.02,LWC V2.00 B2112,2013-08-08 16:33:00,
2013-08-08 09:38:00,61.4,55.9,29.98,North,352,0.0,2.0,82,0.00,,,0.02,LWC V2.00 B2112,2013-08-08 16:38:00,
2013-08-08 09:43:00,61.6,56.0,29.98,West,277,0.0,0.0,82,0.00,,,0.02,LWC V2.00 B2112,2013-08-08 16:43:00,
2013-08-08 09:48:00,61.9,56.3,29.98,SW,236,0.0,0.0,82,0.00,,,0.02,LWC V2.00 B2112,2013-08-08 16:48:00,
2013-08-08 09:53:00,62.6,56.3,29.98,ENE,60,0.0,1.0,80,0.00,,,0.02,LWC V2.00 B2112,2013-08-08 16:53:00,
2013-08-08 09:58:00,62.6,56.3,29.98,ESE,109,0.0,0.0,80,0.00,,,0.02,LWC V2.00 B2112,2013-08-08 16:58:00,
2013-08-08 10:03:00,62.7,56.8,29.98,NW,322,0.0,0.0,81,0.00,,,0.02,LWC V2.00 B2112,2013-08-08 17:03:00,
2013-08-08 10:08:00,62.0,56.1,29.98,ESE,102,0.0,3.0,81,0.00,,,0.02,LWC V2.00 B2112,2013-08-08 17:08:00,
2013-08-08 10:13:00,62.2,56.6,29.99,WSW,257,0.0,0.0,82,0.00,,,0.02,LWC V2.00 B2112,2013-08-08 17:13:00,
2013-08-08 10:18:00,62.4,56.8,29.99,ENE,72,0.0,0.0,82,0.00,,,0.02,LWC V2.00 B2112,2013-08-08 17:18:00,
2013-08-08 10:23:00,62.5,56.6,29.99,WSW,246,0.0,0.0,81,0.00,,,0.02,LWC V2.00 B2112,2013-08-08 17:23:00,
2013-08-08 10:28:00,62.4,56.5,29.99,ENE,74,1.0,1.0,81,0.00,,,0.02,LWC V2.00 B2112,2013-08-08 17:28:00,
2013-08-08 10:33:00,62.2,56.3,29.99,SE,135,0.0,1.0,81,0.00,,,0.02,LWC V2.00 B2112,2013-08-08 17:33:00,
2013-08-08 10:38:00,62.2,56.6,29.99,SSW,207,0.0,0.0,82,0.00,,,0.02,LWC V2.00 B2112,2013-08-08 17:38:00,
2013-08-08 10:43:00,62.3,56.7,29.99,South,191,0.0,0.0,82,0.00,,,0.02,LWC V2.00 B2112,2013-08-08 17:43:00,
2013-08-08 10:48:00,62.5,56.9,29.99,ENE,78,1.0,3.0,82,0.00,,,0.02,LWC V2.00 B2112,2013-08-08 17:48:00,
2013-08-08 10:53:00,62.2,56.6,29.99,SE,133,1.0,4.0,82,0.00,,,0.02,LWC V2.00 B2112,2013-08-08 17:53:00,
2013-08-08 10:58:00,62.2,56.6,29.99,SE,142,1.0,1.0,82,0.00,,,0.02,LWC V2.00 B2112,2013-08-08 17:58:00,
2013-08-08 11:03:00,62.3,56.7,29.99,NNE,27,0.0,2.0,82,0.00,,,0.02,LWC V2.00 B2112,2013-08-08 18:03:00,
2013-08-08 11:08:00,62.9,57.3,29.99,WSW,250,2.0,2.0,82,0.00,,,0.02,LWC V2.00 B2112,2013-08-08 18:08:00,
2013-08-08 11:13:00,63.1,57.2,29.99,NW,321,1.0,4.0,81,0.00,,,0.02,LWC V2.00 B2112,2013-08-08 18:13:00,
2013-08-08 11:18:00,63.2,57.3,29.99,North,6,1.0,1.0,81,0.00,,,0.02,LWC V2.00 B2112,2013-08-08 18:18:00,
2013-08-08 11:23:00,63.3,57.0,29.99,SE,130,1.0,3.0,80,0.00,,,0.02,LWC V2.00 B2112,2013-08-08 18:23:00,
2013-08-08 11:28:00,63.4,57.1,29.99,SW,219,0.0,1.0,80,0.00,,,0.02,LWC V2.00 B2112,2013-08-08 18:28:00,
2013-08-08 11:33:00,63.8,57.5,29.99,NNW,330,2.0,2.0,80,0.00,,,0.02,LWC V2.00 B2112,2013-08-08 18:33:00,
2013-08-08 11:38:00,63.7,57.1,29.99,ESE,109,1.0,4.0,79,0.00,,,0.02,LWC V2.00 B2112,2013-08-08 18:38:00,
2013-08-08 11:43:00,63.5,56.9,29.99,East,99,1.0,4.0,79,0.00,,,0.02,LWC V2.00 B2112,2013-08-08 18:43:00,
2013-08-08 11:47:00,63.2,56.9,29.99,ENE,75,0.0,0.0,80,0.00,,,0.02,LWC V2.00 B2112,2013-08-08 18:47:00,
2013-08-08 11:52:00,63.4,57.1,29.99,ENE,72,2.0,2.0,80,0.00,,,0.02,LWC V2.00 B2112,2013-08-08 18:52:00,
2013-08-08 11:58:00,63.7,56.7,29.99,ESE,102,2.0,3.0,78,0.00,,,0.02,LWC V2.00 B2112,2013-08-08 18:58:00,
2013-08-08 12:03:00,63.7,57.1,29.99,WSW,243,2.0,2.0,79,0.00,,,0.02,LWC V2.00 B2112,2013-08-08 19:03:00,
2013-08-08 12:08:00,63.9,57.3,29.98,West,260,0.0,1.0,79,0.00,,,0.02,LWC V2.00 B2112,2013-08-08 19:08:00,
2013-08-08 12:10:00,64.1,57.5,29.98,SE,143,0.0,5.0,79,0.00,,,0.00,LWC V2.00 B2112,2013-08-08 19:10:00,
2013-08-08 12:13:00,64.3,57.3,29.98,NW,308,2.0,4.0,78,0.00,,,0.02,LWC V2.00 B2112,2013-08-08 19:13:00,
2013-08-08 12:20:00,63.6,57.0,29.99,ENE,68,1.0,5.0,79,0.00,,,0.00,LWC V2.00 B2112,2013-08-08 19:20:00,
2013-08-08 12:30:00,64.4,57.0,29.98,NW,315,1.0,4.0,77,0.00,,,0.00,LWC V2.00 B2112,2013-08-08 19:30:00,
2013-08-08 12:40:00,64.4,57.0,29.98,NW,315,1.0,4.0,77,0.00,,,0.00,LWC V2.00 B2112,2013-08-08 19:40:00,
2013-08-08 12:50:00,64.4,57.0,29.98,NW,315,1.0,4.0,77,0.00,,,0.00,LWC V2.00 B2112,2013-08-08 19:50:00,
2013-08-08 13:00:00,65.1,57.0,29.98,NW,315,1.0,5.0,75,0.00,,,0.00,LWC V2.00 B2112,2013-08-08 20:00:00,
2013-08-08 13:10:00,65.1,57.0,29.98,NW,315,1.0,5.0,75,0.00,,,0.00,LWC V2.00 B2112,2013-08-08 20:10:00,
2013-08-08 13:20:00,65.1,57.0,29.98,NW,315,1.0,5.0,75,0.00,,,0.00,LWC V2.00 B2112,2013-08-08 20:20:00,
2013-08-08 13:36:00,65.0,56.9,29.98,NNW,346,3.0,3.0,75,0.00,,,0.02,LWC V2.00 B2112,2013-08-08 20:36:00,
2013-08-08 13:41:00,65.4,57.3,29.98,East,101,2.0,3.0,75,0.00,,,0.02,LWC V2.00 B2112,2013-08-08 20:41:00,
2013-08-08 13:46:00,65.5,57.0,29.98,NE,43,0.0,2.0,74,0.00,,,0.02,LWC V2.00 B2112,2013-08-08 20:46:00,
2013-08-08 13:51:00,66.0,57.5,29.98,NNW,329,2.0,3.0,74,0.00,,,0.02,LWC V2.00 B2112,2013-08-08 20:51:00,
2013-08-08 13:56:00,66.0,57.1,29.98,NW,309,3.0,4.0,73,0.00,,,0.02,LWC V2.00 B2112,2013-08-08 20:56:00,
2013-08-08 14:01:00,65.9,57.0,29.98,East,96,2.0,5.0,73,0.00,,,0.02,LWC V2.00 B2112,2013-08-08 21:01:00,
2013-08-08 14:06:00,66.0,56.7,29.98,North,11,1.0,3.0,72,0.00,,,0.02,LWC V2.00 B2112,2013-08-08 21:06:00,
2013-08-08 14:11:00,66.3,57.0,29.98,NNW,346,1.0,5.0,72,0.00,,,0.02,LWC V2.00 B2112,2013-08-08 21:11:00,
2013-08-08 14:16:00,66.8,57.9,29.98,WNW,295,3.0,6.0,73,0.00,,,0.02,LWC V2.00 B2112,2013-08-08 21:16:00,
2013-08-08 14:21:00,65.9,56.2,29.98,NW,312,2.0,5.0,71,0.00,,,0.02,LWC V2.00 B2112,2013-08-08 21:21:00,
2013-08-08 14:26:00,64.9,56.0,29.98,NNE,15,1.0,4.0,73,0.00,,,0.02,LWC V2.00 B2112,2013-08-08 21:26:00,
2013-08-08 14:31:00,64.7,56.2,29.98,NW,313,1.0,5.0,74,0.00,,,0.02,LWC V2.00 B2112,2013-08-08 21:31:00,
2013-08-08 14:36:00,64.7,56.2,29.98,NNW,330,1.0,5.0,74,0.00,,,0.02,LWC V2.00 B2112,2013-08-08 21:36:00,
2013-08-08 14:41:00,64.9,56.4,29.98,NNW,333,0.0,3.0,74,0.00,,,0.02,LWC V2.00 B2112,2013-08-08 21:41:00,
2013-08-08 14:46:00,64.8,56.3,29.98,SE,128,0.0,4.0,74,0.00,,,0.02,LWC V2.00 B2112,2013-08-08 21:46:00,
2013-08-08 14:51:00,64.7,56.6,29.98,SSE,155,2.0,3.0,75,0.00,,,0.02,LWC V2.00 B2112,2013-08-08 21:51:00,
2013-08-08 14:56:00,64.4,55.9,29.98,NW,323,1.0,3.0,74,0.00,,,0.02,LWC V2.00 B2112,2013-08-08 21:56:00,
2013-08-08 15:01:00,64.6,56.1,29.98,NE,37,2.0,5.0,74,0.00,,,0.02,LWC V2.00 B2112,2013-08-08 22:01:00,
2013-08-08 15:06:00,64.7,56.2,29.98,NW,326,3.0,6.0,74,0.00,,,0.02,LWC V2.00 B2112,2013-08-08 22:06:00,
2013-08-08 15:11:00,64.5,56.4,29.98,WNW,288,3.0,3.0,75,0.00,,,0.02,LWC V2.00 B2112,2013-08-08 22:11:00,
2013-08-08 15:16:00,64.4,55.9,29.97,ENE,72,2.0,6.0,74,0.00,,,0.02,LWC V2.00 B2112,2013-08-08 22:16:00,
2013-08-08 15:21:00,64.5,56.4,29.97,West,269,1.0,2.0,75,0.00,,,0.02,LWC V2.00 B2112,2013-08-08 22:21:00,
2013-08-08 15:26:00,64.5,56.4,29.97,NNW,329,2.0,3.0,75,0.00,,,0.02,LWC V2.00 B2112,2013-08-08 22:26:00,
2013-08-08 15:31:00,64.4,56.3,29.97,North,349,3.0,3.0,75,0.00,,,0.02,LWC V2.00 B2112,2013-08-08 22:31:00,
2013-08-08 15:36:00,64.2,56.1,29.97,SW,218,2.0,6.0,75,0.00,,,0.02,LWC V2.00 B2112,2013-08-08 22:36:00,
2013-08-08 15:41:00,63.8,56.1,29.97,North,359,1.0,4.0,76,0.00,,,0.02,LWC V2.00 B2112,2013-08-08 22:41:00,
2013-08-08 15:46:00,63.5,55.8,29.97,ENE,60,1.0,3.0,76,0.00,,,0.02,LWC V2.00 B2112,2013-08-08 22:46:00,
2013-08-08 15:51:00,63.4,56.1,29.96,NE,47,2.0,3.0,77,0.00,,,0.02,LWC V2.00 B2112,2013-08-08 22:51:00,
2013-08-08 15:56:00,63.3,56.0,29.96,WNW,288,0.0,3.0,77,0.00,,,0.02,LWC V2.00 B2112,2013-08-08 22:56:00,
2013-08-08 16:01:00,63.4,55.7,29.97,NNW,341,2.0,4.0,76,0.00,,,0.02,LWC V2.00 B2112,2013-08-08 23:01:00,
2013-08-08 16:06:00,63.3,55.6,29.97,WNW,293,1.0,3.0,76,0.00,,,0.02,LWC V2.00 B2112,2013-08-08 23:06:00,
2013-08-08 16:11:00,63.3,55.6,29.96,WSW,249,1.0,1.0,76,0.00,,,0.02,LWC V2.00 B2112,2013-08-08 23:11:00,
2013-08-08 16:16:00,63.5,55.8,29.96,ESE,103,2.0,2.0,76,0.00,,,0.02,LWC V2.00 B2112,2013-08-08 23:16:00,
2013-08-08 16:21:00,62.9,55.2,29.96,West,276,1.0,5.0,76,0.00,,,0.02,LWC V2.00 B2112,2013-08-08 23:21:00,
2013-08-08 16:26:00,62.5,55.5,29.96,ESE,103,0.0,0.0,78,0.00,,,0.02,LWC V2.00 B2112,2013-08-08 23:26:00,
2013-08-08 16:31:00,62.7,55.4,29.96,West,268,0.0,3.0,77,0.00,,,0.02,LWC V2.00 B2112,2013-08-08 23:31:00,
2013-08-08 16:36:00,62.7,55.4,29.97,NW,319,1.0,3.0,77,0.00,,,0.02,LWC V2.00 B2112,2013-08-08 23:36:00,
2013-08-08 16:41:00,62.4,54.7,29.97,NNW,337,0.0,3.0,76,0.00,,,0.02,LWC V2.00 B2112,2013-08-08 23:41:00,
2013-08-08 16:46:00,61.9,54.6,29.97,East,92,1.0,4.0,77,0.00,,,0.02,LWC V2.00 B2112,2013-08-08 23:46:00,
2013-08-08 16:51:00,61.4,54.5,29.96,East,95,2.0,2.0,78,0.00,,,0.02,LWC V2.00 B2112,2013-08-08 23:51:00,
2013-08-08 16:56:00,61.4,54.8,29.96,NNW,340,1.0,4.0,79,0.00,,,0.02,LWC V2.00 B2112,2013-08-08 23:56:00,
2013-08-08 17:01:00,61.3,54.7,29.96,East,85,1.0,6.0,79,0.00,,,0.02,LWC V2.00 B2112,2013-08-09 00:01:00,
2013-08-08 17:06:00,61.0,54.4,29.96,ESE,114,0.0,3.0,79,0.00,,,0.02,LWC V2.00 B2112,2013-08-09 00:06:00,
2013-08-08 17:11:00,61.3,55.4,29.96,ENE,75,1.0,3.0,81,0.00,,,0.02,LWC V2.00 B2112,2013-08-09 00:11:00,
2013-08-08 17:16:00,61.1,54.5,29.96,NNW,333,3.0,3.0,79,0.00,,,0.02,LWC V2.00 B2112,2013-08-09 00:16:00,
2013-08-08 17:21:00,61.1,54.9,29.96,ESE,119,1.0,2.0,80,0.00,,,0.02,LWC V2.00 B2112,2013-08-09 00:21:00,
2013-08-08 17:26:00,61.1,54.9,29.96,ENE,68,1.0,1.0,80,0.00,,,0.02,LWC V2.00 B2112,2013-08-09 00:26:00,
2013-08-08 17:31:00,60.9,54.3,29.96,SSE,152,1.0,5.0,79,0.00,,,0.02,LWC V2.00 B2112,2013-08-09 00:31:00,
2013-08-08 17:36:00,60.7,54.5,29.96,NNW,333,3.0,3.0,80,0.00,,,0.02,LWC V2.00 B2112,2013-08-09 00:36:00,
2013-08-08 17:41:00,60.6,54.4,29.95,NNE,29,1.0,2.0,80,0.00,,,0.02,LWC V2.00 B2112,2013-08-09 00:41:00,
2013-08-08 17:46:00,60.4,54.5,29.95,NE,50,1.0,3.0,81,0.00,,,0.02,LWC V2.00 B2112,2013-08-09 00:46:00,
2013-08-08 17:51:00,60.2,54.3,29.95,NNW,330,2.0,2.0,81,0.00,,,0.02,LWC V2.00 B2112,2013-08-09 00:51:00,
2013-08-08 17:56:00,59.8,54.0,29.95,South,191,2.0,4.0,81,0.00,,,0.02,LWC V2.00 B2112,2013-08-09 00:56:00,
2013-08-08 18:01:00,59.5,54.0,29.95,SW,224,0.0,3.0,82,0.00,,,0.02,LWC V2.00 B2112,2013-08-09 01:01:00,
2013-08-08 18:06:00,59.4,53.9,29.95,SE,127,0.0,2.0,82,0.00,,,0.02,LWC V2.00 B2112,2013-08-09 01:06:00,
2013-08-08 18:11:00,59.3,53.8,29.95,West,259,5.0,5.0,82,0.00,,,0.02,LWC V2.00 B2112,2013-08-09 01:11:00,
2013-08-08 18:16:00,59.1,53.6,29.95,East,96,2.0,5.0,82,0.00,,,0.02,LWC V2.00 B2112,2013-08-09 01:16:00,
2013-08-08 18:21:00,58.8,53.6,29.95,NW,311,1.0,4.0,83,0.00,,,0.02,LWC V2.00 B2112,2013-08-09 01:21:00,
2013-08-08 18:26:00,58.6,53.5,29.94,East,93,3.0,3.0,83,0.00,,,0.02,LWC V2.00 B2112,2013-08-09 01:26:00,
2013-08-08 18:31:00,58.4,53.3,29.94,ENE,62,3.0,4.0,83,0.00,,,0.02,LWC V2.00 B2112,2013-08-09 01:31:00,
2013-08-08 18:36:00,58.1,53.0,29.94,SE,143,1.0,4.0,83,0.00,,,0.02,LWC V2.00 B2112,2013-08-09 01:36:00,
2013-08-08 18:40:00,58.5,53.3,29.94,NW,315,1.0,6.0,83,0.00,,,0.00,LWC V2.00 B2112,2013-08-09 01:40:00,
2013-08-08 18:50:00,58.5,53.3,29.94,NW,315,1.0,6.0,83,0.00,,,0.00,LWC V2.00 B2112,2013-08-09 01:50:00,
2013-08-08 19:00:00,57.6,52.8,29.94,ESE,112,1.0,4.0,84,0.00,,,0.00,LWC V2.00 B2112,2013-08-09 02:00:00,
2013-08-08 19:10:00,57.6,52.8,29.94,ESE,112,1.0,4.0,84,0.00,,,0.00,LWC V2.00 B2112,2013-08-09 02:10:00,
2013-08-08 19:20:00,57.6,52.8,29.94,ESE,112,1.0,4.0,84,0.00,,,0.00,LWC V2.00 B2112,2013-08-09 02:20:00,
2013-08-08 19:30:00,56.5,52.0,29.94,ESE,112,1.0,5.0,85,0.00,,,0.00,LWC V2.00 B2112,2013-08-09 02:30:00,
2013-08-08 19:40:00,56.5,52.0,29.94,ESE,112,1.0,5.0,85,0.00,,,0.00,LWC V2.00 B2112,2013-08-09 02:40:00,
2013-08-08 19:50:00,56.5,52.0,29.94,ESE,112,1.0,5.0,85,0.00,,,0.00,LWC V2.00 B2112,2013-08-09 02:50:00,
2013-08-08 20:00:00,56.0,51.5,29.93,East,90,1.0,6.0,85,0.00,,,0.00,LWC V2.00 B2112,2013-08-09 03:00:00,
2013-08-08 20:10:00,56.0,51.5,29.93,East,90,1.0,6.0,85,0.00,,,0.00,LWC V2.00 B2112,2013-08-09 03:10:00,
2013-08-08 20:20:00,56.0,51.5,29.93,East,90,1.0,6.0,85,0.00,,,0.00,LWC V2.00 B2112,2013-08-09 03:20:00,
2013-08-08 20:30:00,55.4,51.3,29.93,NW,315,1.0,6.0,86,0.00,,,0.00,LWC V2.00 B2112,2013-08-09 03:30:00,
2013-08-08 20:40:00,55.4,51.3,29.93,NW,315,1.0,6.0,86,0.00,,,0.00,LWC V2.00 B2112,2013-08-09 03:40:00,
2013-08-08 20:50:00,55.4,51.3,29.93,NW,315,1.0,6.0,86,0.00,,,0.00,LWC V2.00 B2112,2013-08-09 03:50:00,
2013-08-08 21:00:00,55.3,51.2,29.94,ESE,112,1.0,4.0,86,0.00,,,0.00,LWC V2.00 B2112,2013-08-09 04:00:00,
2013-08-08 21:10:00,55.3,51.2,29.94,ESE,112,1.0,4.0,86,0.00,,,0.00,LWC V2.00 B2112,2013-08-09 04:10:00,
2013-08-08 21:20:00,55.3,51.2,29.94,ESE,112,1.0,4.0,86,0.00,,,0.00,LWC V2.00 B2112,2013-08-09 04:20:00,
2013-08-08 21:30:00,55.3,51.2,29.94,East,90,0.0,5.0,86,0.00,,,0.00,LWC V2.00 B2112,2013-08-09 04:30:00,
2013-08-08 21:40:00,55.3,51.2,29.94,East,90,0.0,5.0,86,0.00,,,0.00,LWC V2.00 B2112,2013-08-09 04:40:00,
2013-08-08 21:50:00,55.3,51.2,29.94,East,90,0.0,5.0,86,0.00,,,0.00,LWC V2.00 B2112,2013-08-09 04:50:00,
2013-08-08 22:00:00,55.3,51.2,29.95,East,90,0.0,2.0,86,0.00,,,0.00,LWC V2.00 B2112,2013-08-09 05:00:00,
2013-08-08 22:10:00,55.3,51.2,29.95,East,90,0.0,2.0,86,0.00,,,0.00,LWC V2.00 B2112,2013-08-09 05:10:00,
2013-08-08 22:20:00,55.3,51.2,29.95,East,90,0.0,2.0,86,0.00,,,0.00,LWC V2.00 B2112,2013-08-09 05:20:00,
2013-08-08 22:30:00,55.2,51.1,29.95,ESE,112,0.0,2.0,86,0.00,,,0.00,LWC V2.00 B2112,2013-08-09 05:30:00,
2013-08-08 22:43:00,54.7,50.6,29.94,South,169,0.0,1.0,86,0.00,,,0.02,LWC V2.00 B2112,2013-08-09 05:43:00,
2013-08-08 22:48:00,54.6,50.5,29.94,NW,304,0.0,0.0,86,0.00,,,0.02,LWC V2.00 B2112,2013-08-09 05:48:00,
2013-08-08 22:50:00,54.6,50.5,29.94,ESE,115,0.0,0.0,86,0.00,,,0.00,LWC V2.00 B2112,2013-08-09 05:50:00,
2013-08-08 22:53:00,54.5,50.4,29.94,NW,304,0.0,0.0,86,0.00,,,0.02,LWC V2.00 B2112,2013-08-09 05:53:00,
2013-08-08 23:00:00,54.4,50.3,29.94,NNW,338,0.0,2.0,86,0.00,,,0.00,LWC V2.00 B2112,2013-08-09 06:00:00,
2013-08-08 23:10:00,54.4,50.3,29.94,NNW,338,0.0,2.0,86,0.00,,,0.00,LWC V2.00 B2112,2013-08-09 06:10:00,
2013-08-08 23:20:00,54.4,50.3,29.94,NNW,338,0.0,2.0,86,0.00,,,0.00,LWC V2.00 B2112,2013-08-09 06:20:00,
2013-08-08 23:30:00,54.3,50.2,29.93,ENE,68,0.0,2.0,86,0.00,,,0.00,LWC V2.00 B2112,2013-08-09 06:30:00,
2013-08-08 23:40:00,54.3,50.2,29.93,ENE,68,0.0,2.0,86,0.00,,,0.00,LWC V2.00 B2112,2013-08-09 06:40:00,
2013-08-08 23:50:00,54.3,50.2,29.93,ENE,68,0.0,2.0,86,0.00,,,0.00,LWC V2.00 B2112,2013-08-09 06:50:00,